Time;durP1;ratioP1;P1;durP2;ratioP2;P2;SDS_P1;SDS_P2;PMS_P1;PMS_P2;Temp;Humidity;BMP_temperature;BMP_pressure;BME280_temperature;BME280_humidity;BME280_pressure;Samples;Min_cycle;Max_cycle;Signal;HPM_P1;HPM_P2
2021/04/05 00:00:14;;;;;;;5.00;2.00;;;;;;;18.82;50.91;101192.91;5038181;28;20098;-76
2021/04/05 00:02:40;;;;;;;4.40;1.58;;;;;;;18.80;50.79;101171.06;5051767;28;20029;-74
2021/04/05 00:05:16;;;;;;;2.17;1.27;;;;;;;18.83;50.82;101178.91;5054981;28;20490;-75
2021/04/05 00:07:46;;;;;;;2.65;1.80;;;;;;;18.83;50.63;101167.53;5045070;28;20029;-74
2021/04/05 00:10:17;;;;;;;3.83;1.90;;;;;;;18.82;50.85;101171.94;5034867;28;20495;-74
2021/04/05 00:12:42;;;;;;;3.28;1.90;;;;;;;18.80;50.72;101162.34;5032901;28;20793;-74
2021/04/05 00:15:09;;;;;;;4.28;2.00;;;;;;;18.81;50.64;101167.56;5035392;28;20037;-75
2021/04/05 00:17:36;;;;;;;3.03;1.75;;;;;;;18.76;50.76;101160.56;5055870;28;20548;-74
2021/04/05 00:20:07;;;;;;;2.85;1.60;;;;;;;18.80;50.53;101173.69;5051442;28;20546;-75
2021/04/05 00:22:32;;;;;;;2.42;1.73;;;;;;;18.77;50.66;101168.44;5050406;28;20393;-75
2021/04/05 00:24:58;;;;;;;4.07;2.10;;;;;;;18.78;50.68;101171.94;5037182;28;20040;-75
2021/04/05 00:27:23;;;;;;;2.97;1.90;;;;;;;18.77;50.73;101157.97;5054046;28;20021;-75
2021/04/05 00:29:48;;;;;;;2.67;1.52;;;;;;;18.77;50.89;101154.47;5035535;28;20479;-75
2021/04/05 00:32:14;;;;;;;2.60;1.77;;;;;;;18.79;50.72;101155.34;5035022;28;20036;-74
2021/04/05 00:34:39;;;;;;;2.40;2.08;;;;;;;18.77;50.80;101131.75;5001398;28;20063;-74
2021/04/05 00:37:05;;;;;;;4.40;1.98;;;;;;;18.78;50.85;101144.00;5009723;28;20124;-74
2021/04/05 00:39:30;;;;;;;3.58;2.03;;;;;;;18.77;50.59;101142.25;5018775;28;20033;-74
2021/04/05 00:41:56;;;;;;;3.38;2.05;;;;;;;18.74;50.74;101133.50;5019270;28;20029;-72
2021/04/05 00:44:21;;;;;;;5.55;2.28;;;;;;;18.76;50.72;101134.38;5035539;28;20087;-72
2021/04/05 00:46:47;;;;;;;3.42;2.00;;;;;;;18.72;50.77;101120.41;5037994;28;20032;-73
2021/04/05 00:49:12;;;;;;;2.47;1.80;;;;;;;18.72;50.70;101120.41;5050297;28;20044;-73
2021/04/05 00:51:38;;;;;;;3.75;2.20;;;;;;;18.75;50.75;101112.53;5052064;28;20103;-75
2021/04/05 00:54:03;;;;;;;3.83;1.75;;;;;;;18.75;50.68;101123.03;5032169;28;20033;-75
2021/04/05 00:56:29;;;;;;;3.15;2.17;;;;;;;18.74;50.46;101108.19;5009832;28;20083;-73
2021/04/05 00:58:54;;;;;;;2.72;2.00;;;;;;;18.70;50.68;101116.91;5025349;28;20057;-76
2021/04/05 01:01:24;;;;;;;3.60;2.28;;;;;;;18.72;50.59;101109.03;5032142;28;20496;-73
2021/04/05 01:03:51;;;;;;;3.33;1.88;;;;;;;18.71;50.63;101102.06;5067241;28;20032;-73
2021/04/05 01:06:19;;;;;;;3.17;2.20;;;;;;;18.73;50.55;101089.84;5056875;28;20029;-73
2021/04/05 01:08:45;;;;;;;2.55;1.88;;;;;;;18.74;50.68;101084.59;5041769;28;20089;-74
2021/04/05 01:11:13;;;;;;;3.72;1.80;;;;;;;18.68;50.58;101068.03;5043928;28;20033;-73
2021/04/05 01:13:38;;;;;;;3.55;2.22;;;;;;;18.72;50.61;101065.38;5037438;28;20501;-74
2021/04/05 01:16:04;;;;;;;4.28;2.17;;;;;;;18.72;50.72;101044.44;5051081;28;20040;-75
2021/04/05 01:18:31;;;;;;;4.60;2.45;;;;;;;18.72;50.70;101038.31;5038821;28;20049;-74
2021/04/05 01:20:56;;;;;;;3.80;2.05;;;;;;;18.71;50.62;101042.69;5035994;28;20055;-74
2021/04/05 01:23:22;;;;;;;3.55;2.40;;;;;;;18.72;50.49;101040.94;5033304;28;20506;-73
2021/04/05 01:25:48;;;;;;;2.95;2.15;;;;;;;18.68;50.61;101028.75;5053179;28;20024;-74
2021/04/05 01:28:14;;;;;;;2.50;1.70;;;;;;;18.68;50.47;101028.75;5051775;28;20028;-75
2021/04/05 01:30:48;;;;;;;3.88;2.42;;;;;;;18.70;50.56;101037.44;5039814;28;20032;-74
2021/04/05 01:33:36;;;;;;;3.38;1.90;;;;;;;18.65;50.49;101029.63;5047127;28;20363;-75
2021/04/05 01:36:10;;;;;;;3.08;2.20;;;;;;;18.70;50.58;101016.50;5046885;28;20382;-75
2021/04/05 01:38:37;;;;;;;2.67;2.10;;;;;;;18.63;50.65;101004.31;5049159;28;20383;-74
2021/04/05 01:41:07;;;;;;;4.75;2.88;;;;;;;18.59;50.45;100999.94;5026306;28;20029;-74
2021/04/05 01:43:33;;;;;;;3.20;2.15;;;;;;;18.68;50.57;101019.13;5039492;28;20163;-75
2021/04/05 01:46:00;;;;;;;3.05;2.00;;;;;;;18.63;50.60;100989.47;5052203;28;20394;-75
2021/04/05 01:48:28;;;;;;;2.95;2.08;;;;;;;18.66;50.46;100999.06;5035349;28;20029;-75
2021/04/05 01:51:04;;;;;;;4.38;2.15;;;;;;;18.65;50.56;100990.34;5033528;28;20037;-74
2021/04/05 01:53:29;;;;;;;4.25;1.80;;;;;;;18.68;50.54;101005.16;5050907;28;20021;-73
2021/04/05 01:56:00;;;;;;;2.53;1.80;;;;;;;18.59;50.65;100977.22;5064417;28;20390;-74
2021/04/05 01:58:28;;;;;;;3.05;2.10;;;;;;;18.62;50.58;100971.13;5034512;28;20029;-74
2021/04/05 02:00:54;;;;;;;3.92;2.35;;;;;;;18.66;50.40;100967.63;5034565;28;20580;-73
2021/04/05 02:03:20;;;;;;;3.35;2.45;;;;;;;18.66;50.45;100960.63;5034608;28;20041;-73
2021/04/05 02:06:06;;;;;;;3.38;2.25;;;;;;;18.63;50.62;100949.28;5013393;28;20491;-74
2021/04/05 02:08:32;;;;;;;4.50;2.17;;;;;;;18.66;50.42;100951.91;5051181;28;20032;-75
2021/04/05 02:11:01;;;;;;;3.67;2.25;;;;;;;18.65;50.54;100931.84;5048185;28;20013;-75
2021/04/05 02:13:26;;;;;;;3.53;2.35;;;;;;;18.64;50.51;100932.72;5046770;28;20035;-73
2021/04/05 02:15:53;;;;;;;3.13;2.17;;;;;;;18.64;50.55;100936.19;5042265;28;20032;-75
2021/04/05 02:18:24;;;;;;;3.70;2.40;;;;;;;18.65;50.52;100932.69;5051610;28;20029;-74
2021/04/05 02:20:50;;;;;;;3.00;2.30;;;;;;;18.59;50.60;100910.88;5020628;28;20215;-75
2021/04/05 02:23:18;;;;;;;6.80;2.92;;;;;;;18.60;50.60;100913.50;5028480;28;20031;-74
2021/04/05 02:28:31;;;;;;;4.40;3.00;;;;;;;18.60;50.50;100903.03;5045596;28;20083;-73
2021/04/05 02:30:56;;;;;;;3.20;2.17;;;;;;;18.63;50.30;100903.03;5043989;28;20422;-72
2021/04/05 02:33:22;;;;;;;3.53;2.22;;;;;;;18.59;50.54;100903.03;5052893;28;20528;-75
2021/04/05 02:35:48;;;;;;;2.13;1.75;;;;;;;18.60;50.45;100897.78;5003502;28;20025;-74
2021/04/05 02:38:14;;;;;;;3.28;2.58;;;;;;;18.61;50.22;100904.78;5041867;28;20041;-75
2021/04/05 02:40:42;;;;;;;3.95;2.15;;;;;;;18.61;50.33;100889.06;5028288;28;20080;-74
2021/04/05 02:43:08;;;;;;;3.55;2.40;;;;;;;18.56;50.24;100882.97;5032767;28;20033;-73
2021/04/05 02:45:34;;;;;;;4.00;2.78;;;;;;;18.61;50.57;100883.81;5047493;28;20100;-73
2021/04/05 02:48:00;;;;;;;4.38;2.75;;;;;;;18.59;50.45;100871.59;5016333;28;20120;-74
2021/04/05 02:50:29;;;;;;;3.13;2.50;;;;;;;18.55;50.58;100858.50;5042614;28;20029;-74
2021/04/05 02:52:59;;;;;;;2.90;2.53;;;;;;;18.58;50.39;100862.88;5032506;28;20116;-73
2021/04/05 02:55:25;;;;;;;2.90;2.28;;;;;;;18.57;50.55;100855.84;5045875;28;20398;-73
2021/04/05 02:57:51;;;;;;;4.28;2.80;;;;;;;18.55;50.28;100839.31;5028862;28;20021;-73
2021/04/05 03:00:18;;;;;;;3.17;2.47;;;;;;;18.60;50.25;100839.28;5035095;28;20084;-73
2021/04/05 03:02:51;;;;;;;2.90;2.22;;;;;;;18.55;50.12;100834.94;5040440;28;20036;-73
2021/04/05 03:05:19;;;;;;;3.20;2.35;;;;;;;18.55;50.45;100836.69;5037676;28;20060;-75
2021/04/05 03:07:45;;;;;;;3.85;2.58;;;;;;;18.57;50.46;100841.00;5036089;28;20045;-73
2021/04/05 03:10:12;;;;;;;3.60;2.30;;;;;;;18.54;50.28;100827.97;5019711;28;20056;-74
2021/04/05 03:12:40;;;;;;;4.18;2.42;;;;;;;18.52;50.50;100821.84;5035236;28;20352;-74
2021/04/05 03:15:08;;;;;;;3.65;2.65;;;;;;;18.57;50.46;100821.81;5032630;28;20034;-74
2021/04/05 03:17:34;;;;;;;3.53;2.65;;;;;;;18.55;50.28;100826.22;5017867;28;20030;-73
2021/04/05 03:20:01;;;;;;;3.53;2.55;;;;;;;18.55;50.38;100816.63;5019252;28;20033;-73
2021/04/05 03:22:27;;;;;;;2.75;2.13;;;;;;;18.54;50.37;100804.41;5024334;28;20029;-73
2021/04/05 03:24:52;;;;;;;3.75;2.10;;;;;;;18.56;50.20;100818.31;5005066;28;20031;-74
2021/04/05 03:27:18;;;;;;;2.83;2.05;;;;;;;18.47;50.34;100804.41;5001223;28;20033;-74
2021/04/05 03:29:45;;;;;;;3.83;2.72;;;;;;;18.49;50.17;100805.28;5028977;28;20095;-73
2021/04/05 03:32:16;;;;;;;3.13;2.20;;;;;;;18.48;50.32;100804.41;4998247;28;20033;-73
2021/04/05 03:34:48;;;;;;;3.72;2.28;;;;;;;18.54;50.36;100809.63;5017334;28;20026;-73
2021/04/05 03:37:17;;;;;;;4.00;2.78;;;;;;;18.51;50.07;100798.28;5017620;28;20037;-74
2021/04/05 03:39:43;;;;;;;4.35;2.60;;;;;;;18.49;50.52;100793.06;5003958;28;21640;-73
2021/04/05 03:42:12;;;;;;;6.28;3.17;;;;;;;18.48;50.34;100785.22;5033018;28;20025;-73
2021/04/05 03:44:59;;;;;;;4.68;2.83;;;;;;;18.51;50.41;100793.06;5035399;28;20384;-73
2021/04/05 03:47:36;;;;;;;3.50;2.53;;;;;;;18.49;50.27;100795.69;5045002;28;20112;-74
2021/04/05 03:50:32;;;;;;;4.35;2.83;;;;;;;18.52;50.30;100785.19;5035158;28;20060;-73
2021/04/05 03:53:18;;;;;;;3.20;2.10;;;;;;;18.52;50.29;100786.94;5008614;28;20029;-74
2021/04/05 03:55:49;;;;;;;6.50;2.55;;;;;;;18.48;50.33;100769.50;5033488;28;20030;-73
2021/04/05 03:58:17;;;;;;;4.05;2.80;;;;;;;18.51;50.31;100779.97;5031621;28;20038;-74
2021/04/05 04:00:44;;;;;;;3.47;2.45;;;;;;;18.47;50.41;100762.53;5054269;28;20052;-74
2021/04/05 04:03:15;;;;;;;4.10;2.80;;;;;;;18.49;50.33;100758.16;5055022;28;20486;-73
2021/04/05 04:05:48;;;;;;;5.57;3.45;;;;;;;18.50;50.31;100745.06;5049084;28;20036;-73
2021/04/05 04:08:27;;;;;;;2.92;2.33;;;;;;;18.50;50.22;100754.66;5060694;28;20037;-74
2021/04/05 04:10:55;;;;;;;3.85;2.83;;;;;;;18.46;50.25;100745.94;5045597;28;20029;-73
2021/04/05 04:13:22;;;;;;;6.43;2.85;;;;;;;18.46;50.26;100731.97;5035108;28;20040;-73
2021/04/05 04:15:51;;;;;;;3.97;2.30;;;;;;;18.46;50.34;100724.13;5038499;28;20082;-73
2021/04/05 04:18:18;;;;;;;3.28;2.40;;;;;;;18.49;50.37;100716.25;5056327;28;20033;-74
2021/04/05 04:20:44;;;;;;;3.97;2.88;;;;;;;18.49;50.27;100742.44;5030543;28;20037;-74
2021/04/05 04:23:11;;;;;;;4.60;2.65;;;;;;;18.49;50.25;100811.41;5040700;28;20036;-73
2021/04/05 04:25:37;;;;;;;5.47;3.00;;;;;;;18.46;50.27;100785.22;5036073;28;20127;-75
2021/04/05 04:28:04;;;;;;;3.55;2.63;;;;;;;18.48;50.31;100788.69;5035387;28;20490;-74
2021/04/05 04:30:33;;;;;;;3.85;3.15;;;;;;;18.47;50.13;100797.44;5035658;28;20425;-73
2021/04/05 04:33:10;;;;;;;4.38;2.80;;;;;;;18.47;50.23;100813.16;5037399;28;20025;-74
2021/04/05 04:35:38;;;;;;;5.88;2.85;;;;;;;18.43;50.48;100810.56;5033077;28;20487;-74
2021/04/05 04:38:05;;;;;;;3.25;2.33;;;;;;;18.46;50.25;100811.41;5022692;28;20391;-73
2021/04/05 04:40:34;;;;;;;3.88;2.40;;;;;;;18.45;50.30;100814.03;5044695;28;20119;-74
2021/04/05 04:43:02;;;;;;;5.93;2.88;;;;;;;18.47;50.15;100820.13;5054332;28;20061;-73
2021/04/05 04:45:28;;;;;;;3.42;2.50;;;;;;;18.40;50.29;100816.69;5025264;28;20025;-74
2021/04/05 04:47:55;;;;;;;4.22;2.70;;;;;;;18.42;50.28;100827.16;5020210;28;20390;-73
2021/04/05 04:50:21;;;;;;;3.22;2.42;;;;;;;18.44;50.28;100823.63;5035851;28;20024;-72
2021/04/05 04:52:48;;;;;;;2.65;1.92;;;;;;;18.43;50.28;100821.03;5033143;28;20036;-74
2021/04/05 04:55:15;;;;;;;4.03;2.50;;;;;;;18.43;50.34;100807.94;5028843;28;20025;-72
2021/04/05 04:57:41;;;;;;;5.00;2.45;;;;;;;18.42;50.21;100799.22;5035776;28;20057;-73
2021/04/05 05:00:07;;;;;;;3.85;2.67;;;;;;;18.40;50.22;100794.88;5033333;28;20068;-73
2021/04/05 05:02:40;;;;;;;3.30;2.33;;;;;;;18.42;49.76;100793.13;5042020;28;20032;-73
2021/04/05 05:05:07;;;;;;;3.70;2.42;;;;;;;18.37;50.26;100766.94;5034770;28;20035;-73
2021/04/05 05:07:34;;;;;;;2.97;2.58;;;;;;;18.37;50.36;100784.41;5035060;28;20029;-73
2021/04/05 05:10:00;;;;;;;4.28;2.42;;;;;;;18.39;50.16;100793.13;5019114;28;20098;-74
2021/04/05 05:12:26;;;;;;;2.92;2.25;;;;;;;18.41;50.22;100801.84;5019515;28;20029;-74
2021/04/05 05:14:52;;;;;;;4.00;2.75;;;;;;;18.36;50.25;100804.47;5036037;28;20429;-73
2021/04/05 05:17:18;;;;;;;3.63;2.33;;;;;;;18.38;50.24;100783.53;5016621;28;20037;-73
2021/04/05 05:19:44;;;;;;;3.65;2.45;;;;;;;18.38;50.04;100789.63;5053031;28;20374;-73
2021/04/05 05:22:14;;;;;;;3.95;2.28;;;;;;;18.39;50.05;100794.00;5060793;28;20028;-74
2021/04/05 05:24:43;;;;;;;3.72;2.30;;;;;;;18.38;50.12;100801.84;5048388;28;20028;-72
2021/04/05 05:27:09;;;;;;;3.40;2.40;;;;;;;18.39;50.03;100804.47;5035413;28;20031;-73
2021/04/05 05:29:35;;;;;;;3.20;2.08;;;;;;;18.39;49.93;100814.06;5034971;28;20020;-74
2021/04/05 05:32:01;;;;;;;3.55;2.72;;;;;;;18.34;50.03;100803.63;5018215;28;20043;-74
2021/04/05 05:34:26;;;;;;;3.78;2.10;;;;;;;18.33;50.24;100807.09;5033609;28;20025;-73
2021/04/05 05:36:52;;;;;;;2.90;2.30;;;;;;;18.33;50.09;100814.97;5001847;28;20032;-72
2021/04/05 05:39:18;;;;;;;3.38;2.38;;;;;;;18.33;50.17;100807.09;5036265;28;20102;-74
2021/04/05 05:42:12;;;;;;;4.45;2.35;;;;;;;18.35;50.23;100828.91;5023439;28;20487;-73
2021/04/05 05:44:45;;;;;;;3.25;1.77;;;;;;;18.35;50.11;100847.25;5032684;28;20036;-74
2021/04/05 05:47:34;;;;;;;2.47;1.70;;;;;;;18.28;50.08;100831.59;5052779;28;20032;-72
2021/04/05 05:50:24;;;;;;;4.20;2.25;;;;;;;18.36;50.17;100856.84;5040150;28;20387;-73
2021/04/05 05:53:04;;;;;;;3.20;2.08;;;;;;;18.29;50.08;100842.06;5043591;28;20039;-75
2021/04/05 05:55:53;;;;;;;3.35;2.40;;;;;;;18.34;49.93;100871.69;5032880;28;20048;-75
2021/04/05 05:58:44;;;;;;;4.75;2.47;;;;;;;18.35;50.11;100865.56;5032999;28;20033;-74
2021/04/05 06:01:23;;;;;;;3.15;1.83;;;;;;;18.33;49.95;100872.56;5044643;28;20041;-75
2021/04/05 06:03:59;;;;;;;3.35;2.10;;;;;;;18.35;49.71;100875.16;5036941;28;20029;-75
2021/04/05 06:06:56;;;;;;;4.65;2.42;;;;;;;18.33;49.97;100888.25;5045993;28;20024;-74
2021/04/05 06:09:59;;;;;;;2.38;1.58;;;;;;;18.34;50.00;100889.13;5033826;28;20021;-75
2021/04/05 06:12:37;;;;;;;4.50;2.20;;;;;;;18.31;50.05;100900.47;5059924;28;20036;-75
2021/04/05 06:15:21;;;;;;;3.65;2.38;;;;;;;18.24;49.96;100904.00;5047550;28;20429;-73
2021/04/05 06:18:06;;;;;;;5.28;1.92;;;;;;;18.26;50.10;100915.34;5038769;28;20029;-74
2021/04/05 06:20:48;;;;;;;3.33;2.30;;;;;;;18.27;50.05;100913.59;5032086;28;20544;-75
2021/04/05 06:23:37;;;;;;;3.33;2.00;;;;;;;18.26;49.97;100920.59;5040581;28;20029;-75
2021/04/05 06:26:13;;;;;;;3.85;2.45;;;;;;;18.28;49.77;100933.69;5058550;28;20086;-75
2021/04/05 06:28:49;;;;;;;3.58;2.63;;;;;;;18.31;50.03;100933.63;5048795;28;20104;-74
2021/04/05 06:31:30;;;;;;;4.22;2.22;;;;;;;18.26;49.96;100933.69;5046653;28;20352;-74
2021/04/05 06:34:06;;;;;;;6.15;2.80;;;;;;;18.27;49.79;100945.88;5050465;28;20052;-74
2021/04/05 06:36:44;;;;;;;4.43;2.58;;;;;;;18.26;49.99;100965.09;5062648;28;20057;-75
2021/04/05 06:39:27;;;;;;;3.88;2.65;;;;;;;18.28;49.86;100992.13;5049311;28;20423;-75
2021/04/05 06:41:55;;;;;;;3.95;2.40;;;;;;;18.30;50.11;100981.66;5054562;28;20025;-74
2021/04/05 06:44:39;;;;;;;4.55;2.15;;;;;;;18.28;49.75;100986.91;5038962;28;20029;-75
2021/04/05 06:47:23;;;;;;;3.53;2.15;;;;;;;18.28;49.93;100997.38;5048613;28;20024;-75
2021/04/05 06:49:57;;;;;;;3.55;2.03;;;;;;;18.27;49.87;101010.47;5041388;28;20032;-74
2021/04/05 06:52:29;;;;;;;4.43;1.90;;;;;;;18.28;49.87;101004.34;5054786;28;20032;-74
2021/04/05 06:55:07;;;;;;;2.50;1.70;;;;;;;18.25;49.92;100993.88;5046983;28;20020;-74
2021/04/05 06:57:42;;;;;;;3.13;2.10;;;;;;;18.28;49.99;101006.97;5037273;28;20029;-74
2021/04/05 07:00:18;;;;;;;4.70;2.03;;;;;;;18.23;49.71;100995.63;5040780;28;20029;-75
2021/04/05 07:03:34;;;;;;;3.45;1.85;;;;;;;18.25;49.72;100989.50;5037807;28;20029;-75
2021/04/05 07:06:17;;;;;;;4.80;2.30;;;;;;;18.26;49.63;100995.63;4992033;28;20085;-74
2021/04/05 07:09:02;;;;;;;3.88;2.00;;;;;;;18.20;49.57;100993.88;5012877;28;20025;-75
2021/04/05 07:11:38;;;;;;;4.97;2.53;;;;;;;18.25;49.65;100997.38;5017325;28;20021;-74
2021/04/05 07:14:25;;;;;;;3.60;1.75;;;;;;;18.25;49.42;100996.50;5032147;28;20034;-74
2021/04/05 07:16:54;;;;;;;3.40;2.08;;;;;;;18.25;49.75;100996.50;4998728;28;20030;-73
2021/04/05 07:19:34;;;;;;;2.85;1.80;;;;;;;18.24;49.81;101003.47;5006679;28;20041;-74
2021/04/05 07:22:20;;;;;;;5.95;2.28;;;;;;;18.22;49.83;100999.97;5018708;28;20033;-73
2021/04/05 07:25:02;;;;;;;4.43;2.33;;;;;;;18.27;49.80;101006.09;5015250;28;20464;-74
2021/04/05 07:27:50;;;;;;;5.13;2.60;;;;;;;18.44;49.82;101017.41;5026658;28;20021;-76
2021/04/05 07:30:24;;;;;;;6.18;2.92;;;;;;;18.56;49.79;101019.16;5033104;28;20025;-73
2021/04/05 07:33:09;;;;;;;24.77;5.10;;;;;;;18.57;49.44;101023.47;5019450;28;20025;-75
2021/04/05 07:35:50;;;;;;;6.30;2.85;;;;;;;18.66;50.66;101028.75;5029342;28;20472;-73
2021/04/05 07:38:15;;;;;;;6.97;3.25;;;;;;;18.77;51.09;101016.47;5027303;28;20034;-75
2021/04/05 07:40:56;;;;;;;7.78;3.15;;;;;;;18.79;50.52;101022.59;5026966;28;20079;-76
2021/04/05 07:43:49;;;;;;;6.65;3.00;;;;;;;18.77;50.95;101026.97;5030455;28;20037;-74
2021/04/05 07:46:36;;;;;;;6.40;3.35;;;;;;;18.87;51.37;101017.31;5025022;28;20444;-75
2021/04/05 07:49:01;;;;;;;7.43;3.08;;;;;;;18.91;51.36;101019.94;5017579;28;20171;-75
2021/04/05 07:51:52;;;;;;;12.13;4.13;;;;;;;18.95;51.34;101022.53;5020304;28;20487;-74
2021/04/05 07:54:20;;;;;;;12.05;4.95;;;;;;;18.99;51.40;101017.25;5017139;28;22176;-74
2021/04/05 07:57:18;;;;;;;6.30;4.05;;;;;;;19.04;51.18;101032.97;5014779;28;20112;-73
2021/04/05 07:59:58;;;;;;;8.55;3.90;;;;;;;19.02;51.10;101047.84;5030446;28;20111;-75
2021/04/05 08:02:38;;;;;;;9.05;3.83;;;;;;;19.03;51.04;101066.19;5030204;28;20033;-73
2021/04/05 08:05:46;;;;;;;7.43;4.03;;;;;;;19.06;50.74;101063.56;5033252;28;20030;-73
2021/04/05 08:08:36;;;;;;;6.55;3.45;;;;;;;19.01;50.71;101099.38;5024240;28;20135;-74
2021/04/05 08:11:18;;;;;;;4.82;2.95;;;;;;;18.99;51.06;101089.78;5017324;28;20023;-74
2021/04/05 08:14:21;;;;;;;7.57;3.22;;;;;;;19.07;50.92;101102.00;5010389;28;20407;-74
2021/04/05 08:16:52;;;;;;;6.32;3.90;;;;;;;19.06;50.58;101102.88;5044986;28;20021;-72
2021/04/05 08:19:40;;;;;;;7.93;3.40;;;;;;;19.04;50.58;101096.75;5022609;28;20510;-73
2021/04/05 08:22:34;;;;;;;7.95;3.70;;;;;;;19.09;50.58;101115.06;5033858;28;20060;-74
2021/04/05 08:25:33;;;;;;;6.32;3.22;;;;;;;19.08;50.66;101113.34;5029363;28;20032;-73
2021/04/05 08:28:24;;;;;;;9.38;3.92;;;;;;;19.03;50.50;101128.22;5023594;28;20033;-74
2021/04/05 08:31:22;;;;;;;5.80;3.17;;;;;;;19.10;50.51;101116.81;5006070;28;20499;-74
2021/04/05 08:34:12;;;;;;;7.65;3.42;;;;;;;19.15;50.36;101133.41;5016931;28;20048;-75
2021/04/05 08:36:46;;;;;;;6.22;2.85;;;;;;;19.15;50.09;101136.91;5011882;28;20056;-73
2021/04/05 08:40:02;;;;;;;4.72;2.63;;;;;;;19.20;50.39;101124.66;5015551;28;20033;-75
2021/04/05 08:42:31;;;;;;;5.90;2.65;;;;;;;19.25;50.13;101135.13;5006774;28;20041;-74
2021/04/05 08:45:10;;;;;;;5.57;2.70;;;;;;;19.24;49.93;101141.25;5030381;28;20049;-76
2021/04/05 08:47:39;;;;;;;5.00;2.63;;;;;;;19.22;49.96;101124.63;5016415;28;20036;-74
2021/04/05 08:50:08;;;;;;;4.38;2.20;;;;;;;19.20;49.98;101135.16;5014519;28;20080;-74
2021/04/05 08:52:41;;;;;;;6.68;2.70;;;;;;;19.27;50.05;101136.88;5031820;28;20049;-75
2021/04/05 08:55:10;;;;;;;5.05;2.53;;;;;;;19.13;49.80;101122.06;5009944;28;20108;-74
2021/04/05 08:57:46;;;;;;;7.53;3.38;;;;;;;19.23;49.80;101134.25;5017275;28;20022;-73
2021/04/05 09:00:14;;;;;;;4.32;2.70;;;;;;;19.29;49.63;101149.97;5044759;28;20052;-75
2021/04/05 09:02:50;;;;;;;4.45;2.13;;;;;;;19.25;49.59;101129.88;5037083;28;20040;-75
2021/04/05 09:05:20;;;;;;;5.85;2.60;;;;;;;19.28;49.50;101148.22;5074049;28;20074;-74
2021/04/05 09:07:45;;;;;;;7.88;2.38;;;;;;;19.31;49.59;101142.09;5027222;28;20502;-73
2021/04/05 09:10:13;;;;;;;6.35;2.58;;;;;;;19.36;49.61;101149.06;5054912;28;20037;-73
2021/04/05 09:12:42;;;;;;;7.82;2.58;;;;;;;19.32;49.52;101163.09;5035011;28;20028;-74
2021/04/05 09:15:29;;;;;;;6.53;2.92;;;;;;;19.34;49.86;101155.22;5035971;28;20376;-73
2021/04/05 09:18:27;;;;;;;4.32;2.20;;;;;;;19.41;49.19;101170.03;5058423;28;20479;-73
2021/04/05 09:21:17;;;;;;;8.20;2.33;;;;;;;19.38;49.50;101184.03;5053149;28;20029;-74
2021/04/05 09:24:07;;;;;;;5.10;2.10;;;;;;;19.35;49.76;101191.91;5059333;28;20024;-73
2021/04/05 09:26:55;;;;;;;5.00;2.55;;;;;;;19.44;49.56;101199.75;5037740;28;20043;-74
2021/04/05 09:29:30;;;;;;;5.07;1.98;;;;;;;19.39;49.53;101208.50;5033187;28;20029;-73
2021/04/05 09:32:22;;;;;;;5.47;2.30;;;;;;;19.38;49.69;101214.63;5041422;28;20020;-74
2021/04/05 09:35:16;;;;;;;6.32;2.85;;;;;;;19.45;49.37;101209.38;5035966;28;20116;-74
2021/04/05 09:37:53;;;;;;;4.05;2.35;;;;;;;19.47;49.09;101198.88;5051680;28;20557;-73
2021/04/05 09:40:56;;;;;;;3.58;2.65;;;;;;;19.45;49.43;101196.25;5034130;28;20084;-75
2021/04/05 09:43:32;;;;;;;5.90;1.63;;;;;;;19.54;48.96;101209.38;5031297;28;20075;-75
2021/04/05 09:46:17;;;;;;;4.78;3.05;;;;;;;19.45;49.04;101196.25;5053878;28;20032;-73
2021/04/05 09:48:57;;;;;;;3.95;1.77;;;;;;;19.45;49.23;101212.00;5037866;28;20040;-75
2021/04/05 09:51:38;;;;;;;4.80;1.90;;;;;;;19.60;49.00;101211.13;5042821;28;20082;-74
2021/04/05 09:54:16;;;;;;;2.88;1.50;;;;;;;19.57;48.82;101217.25;5045393;28;20025;-73
2021/04/05 09:56:46;;;;;;;2.90;1.98;;;;;;;19.55;48.99;101220.72;5048239;28;20031;-73
2021/04/05 09:59:17;;;;;;;2.83;2.30;;;;;;;19.55;49.18;101231.22;5048672;28;20135;-73
2021/04/05 10:01:50;;;;;;;6.03;1.73;;;;;;;19.51;49.66;101224.25;5052812;28;20033;-73
2021/04/05 10:04:20;;;;;;;17.30;2.50;;;;;;;19.43;49.26;101215.50;5034522;28;20036;-75
2021/04/05 10:06:47;;;;;;;4.38;2.38;;;;;;;19.48;49.53;101235.56;5035051;28;20025;-73
2021/04/05 10:09:13;;;;;;;3.28;1.73;;;;;;;19.46;49.72;101239.09;5036024;28;20032;-74
2021/04/05 10:11:44;;;;;;;4.70;2.13;;;;;;;19.48;50.13;101240.81;5020448;28;20021;-73
2021/04/05 10:14:13;;;;;;;6.18;1.90;;;;;;;19.53;49.74;101252.22;5051343;28;20029;-74
2021/04/05 10:16:43;;;;;;;3.97;1.92;;;;;;;19.57;49.94;101259.22;5034590;28;20084;-74
2021/04/05 10:19:11;;;;;;;3.50;1.88;;;;;;;19.44;49.84;101249.59;5045522;28;20017;-74
2021/04/05 10:21:47;;;;;;;4.35;1.83;;;;;;;19.52;50.57;101255.72;5058132;28;20091;-73
2021/04/05 10:24:14;;;;;;;3.33;1.70;;;;;;;19.52;50.25;101257.47;5046419;28;20021;-74
2021/04/05 10:26:43;;;;;;;3.55;1.77;;;;;;;19.55;50.13;101246.97;5065628;28;20493;-76
2021/04/05 10:29:14;;;;;;;3.15;1.52;;;;;;;19.49;50.27;101250.47;5028468;28;20423;-75
2021/04/05 10:31:43;;;;;;;3.72;2.22;;;;;;;19.59;50.41;101265.34;5026674;28;20032;-75
2021/04/05 10:34:10;;;;;;;3.72;1.98;;;;;;;19.60;50.45;101269.66;5046721;28;20037;-74
2021/04/05 10:36:46;;;;;;;3.58;1.88;;;;;;;19.53;50.64;101246.97;5045554;28;20031;-75
2021/04/05 10:39:12;;;;;;;2.13;1.30;;;;;;;19.53;50.68;101240.84;5023554;28;20458;-76
2021/04/05 10:42:13;;;;;;;2.78;1.60;;;;;;;19.61;50.60;101244.31;5033014;28;20075;-75
2021/04/05 10:44:44;;;;;;;2.63;1.08;;;;;;;19.62;50.59;101243.44;5047202;28;20044;-74
2021/04/05 10:47:19;;;;;;;2.65;1.60;;;;;;;19.66;50.82;101246.94;5060154;28;20043;-74
2021/04/05 10:49:47;;;;;;;3.05;1.50;;;;;;;19.65;50.97;101258.31;5043791;28;20478;-74
2021/04/05 10:52:19;;;;;;;3.30;1.80;;;;;;;19.54;50.95;101253.09;5056589;28;20035;-75
2021/04/05 10:54:50;;;;;;;2.45;1.58;;;;;;;19.53;51.49;101261.84;5059240;28;20447;-76
2021/04/05 10:57:26;;;;;;;3.00;1.35;;;;;;;19.57;51.39;101281.94;5034891;28;20040;-76
2021/04/05 10:59:53;;;;;;;2.40;1.40;;;;;;;19.58;50.98;101291.56;5041290;28;20037;-75
2021/04/05 11:02:46;;;;;;;3.75;1.40;;;;;;;19.54;51.34;101282.81;5002986;28;20037;-77
2021/04/05 11:05:16;;;;;;;3.10;1.63;;;;;;;19.58;51.43;101296.81;5024267;28;20491;-77
2021/04/05 11:07:46;;;;;;;4.35;1.15;;;;;;;19.52;51.62;101281.94;5022719;28;20087;-76
2021/04/05 11:10:20;;;;;;;3.83;1.50;;;;;;;19.50;51.90;101281.06;5021426;28;20022;-76
2021/04/05 11:12:52;;;;;;;4.22;2.00;;;;;;;19.46;52.10;101275.81;5020579;28;20022;-76
2021/04/05 11:15:20;;;;;;;2.25;1.20;;;;;;;19.48;51.94;101293.28;5020149;28;20024;-77
2021/04/05 11:17:49;;;;;;;2.97;1.30;;;;;;;19.49;51.90;101305.56;5020067;28;20133;-76
2021/04/05 11:20:17;;;;;;;4.00;2.08;;;;;;;19.46;52.16;101302.06;5036988;28;20029;-77
2021/04/05 11:22:43;;;;;;;3.97;1.50;;;;;;;19.50;51.84;101323.03;5006408;28;20037;-80
2021/04/05 11:25:21;;;;;;;2.63;1.23;;;;;;;19.55;51.68;101337.03;5028021;28;20035;-78
2021/04/05 11:27:52;;;;;;;2.20;1.15;;;;;;;19.47;51.58;101338.78;5043247;28;20034;-81
2021/04/05 11:30:23;;;;;;;3.25;1.20;;;;;;;19.48;51.66;101368.47;5018528;28;20032;-82
2021/04/05 11:32:53;;;;;;;4.40;1.10;;;;;;;19.42;51.79;101345.75;5003061;28;20116;-74
2021/04/05 11:35:21;;;;;;;4.63;1.88;;;;;;;19.45;52.81;101352.75;5032873;28;20462;-81
2021/04/05 11:37:48;;;;;;;4.28;2.50;;;;;;;19.47;52.67;101343.16;5021226;28;20032;-79
2021/04/05 11:40:17;;;;;;;2.88;1.65;;;;;;;19.44;52.79;101335.28;5018956;28;20091;-78
2021/04/05 11:42:47;;;;;;;3.03;1.65;;;;;;;19.40;52.43;101337.00;5036337;28;20025;-78
2021/04/05 11:45:33;;;;;;;4.68;1.85;;;;;;;19.44;52.97;101356.25;5022127;28;20037;-79
2021/04/05 11:48:05;;;;;;;3.65;1.65;;;;;;;19.40;53.03;101342.25;5022628;28;20029;-79
2021/04/05 11:50:30;;;;;;;4.72;1.73;;;;;;;19.46;52.88;101354.50;5035659;28;20418;-76
2021/04/05 11:53:07;;;;;;;3.08;1.98;;;;;;;19.44;53.09;101361.50;5001079;28;20030;-76
2021/04/05 11:55:35;;;;;;;2.22;1.50;;;;;;;19.36;52.92;101335.25;5019204;28;20025;-80